sensor_id;sensor_type;location;lat;lon;timestamp;P1;durP1;ratioP1;P2;durP2;ratioP2
52554;SDS011;38455;52.710;6.502;2023-05-24T00:00:41;15.70;;;4.47;;
52554;SDS011;38455;52.710;6.502;2023-05-24T00:03:07;17.17;;;5.35;;
52554;SDS011;38455;52.710;6.502;2023-05-24T00:05:33;23.58;;;5.13;;
52554;SDS011;38455;52.710;6.502;2023-05-24T00:08:01;22.08;;;5.97;;
52554;SDS011;38455;52.710;6.502;2023-05-24T00:10:28;25.38;;;6.18;;
52554;SDS011;38455;52.710;6.502;2023-05-24T00:12:54;26.45;;;7.28;;
52554;SDS011;38455;52.710;6.502;2023-05-24T00:15:20;27.17;;;5.80;;
52554;SDS011;38455;52.710;6.502;2023-05-24T00:17:46;21.13;;;6.70;;
52554;SDS011;38455;52.710;6.502;2023-05-24T00:20:11;19.35;;;5.18;;
52554;SDS011;38455;52.710;6.502;2023-05-24T00:22:38;21.73;;;5.75;;
52554;SDS011;38455;52.710;6.502;2023-05-24T00:25:04;22.02;;;7.10;;
52554;SDS011;38455;52.710;6.502;2023-05-24T00:27:31;32.75;;;9.63;;
52554;SDS011;38455;52.710;6.502;2023-05-24T00:29:57;24.27;;;5.57;;
52554;SDS011;38455;52.710;6.502;2023-05-24T00:32:22;24.38;;;5.68;;
52554;SDS011;38455;52.710;6.502;2023-05-24T00:34:48;22.60;;;5.30;;
52554;SDS011;38455;52.710;6.502;2023-05-24T00:37:14;35.78;;;7.43;;
52554;SDS011;38455;52.710;6.502;2023-05-24T00:39:39;29.02;;;6.50;;
52554;SDS011;38455;52.710;6.502;2023-05-24T00:42:05;31.75;;;6.05;;
52554;SDS011;38455;52.710;6.502;2023-05-24T00:44:31;22.98;;;6.57;;
52554;SDS011;38455;52.710;6.502;2023-05-24T00:46:57;24.02;;;5.95;;
52554;SDS011;38455;52.710;6.502;2023-05-24T00:49:23;27.80;;;5.80;;
52554;SDS011;38455;52.710;6.502;2023-05-24T00:51:50;30.67;;;6.75;;
52554;SDS011;38455;52.710;6.502;2023-05-24T00:54:17;43.78;;;7.07;;
52554;SDS011;38455;52.710;6.502;2023-05-24T00:56:43;26.85;;;6.60;;
52554;SDS011;38455;52.710;6.502;2023-05-24T00:59:08;23.00;;;6.72;;
52554;SDS011;38455;52.710;6.502;2023-05-24T01:01:34;32.22;;;7.90;;
52554;SDS011;38455;52.710;6.502;2023-05-24T01:04:01;26.13;;;6.85;;
52554;SDS011;38455;52.710;6.502;2023-05-24T01:06:27;24.63;;;6.47;;
52554;SDS011;38455;52.710;6.502;2023-05-24T01:09:12;23.65;;;6.15;;
52554;SDS011;38455;52.710;6.502;2023-05-24T01:12:06;23.10;;;6.35;;
52554;SDS011;38455;52.710;6.502;2023-05-24T01:17:39;22.73;;;5.55;;
52554;SDS011;38455;52.710;6.502;2023-05-24T01:20:15;28.83;;;6.30;;
52554;SDS011;38455;52.710;6.502;2023-05-24T01:28:38;27.05;;;5.85;;
52554;SDS011;38455;52.710;6.502;2023-05-24T01:31:05;26.23;;;5.70;;
52554;SDS011;38455;52.710;6.502;2023-05-24T01:33:31;19.58;;;5.80;;
52554;SDS011;38455;52.710;6.502;2023-05-24T01:35:57;27.95;;;7.22;;
52554;SDS011;38455;52.710;6.502;2023-05-24T01:38:22;25.88;;;7.00;;
52554;SDS011;38455;52.710;6.502;2023-05-24T01:40:49;25.70;;;6.00;;
52554;SDS011;38455;52.710;6.502;2023-05-24T01:43:27;32.10;;;6.50;;
52554;SDS011;38455;52.710;6.502;2023-05-24T01:51:48;31.55;;;7.25;;
52554;SDS011;38455;52.710;6.502;2023-05-24T01:54:19;25.80;;;6.25;;
52554;SDS011;38455;52.710;6.502;2023-05-24T01:56:47;33.13;;;7.40;;
52554;SDS011;38455;52.710;6.502;2023-05-24T01:59:15;36.47;;;6.43;;
52554;SDS011;38455;52.710;6.502;2023-05-24T02:01:42;27.40;;;6.45;;
52554;SDS011;38455;52.710;6.502;2023-05-24T02:04:08;25.60;;;6.07;;
52554;SDS011;38455;52.710;6.502;2023-05-24T02:06:34;27.13;;;6.55;;
52554;SDS011;38455;52.710;6.502;2023-05-24T02:09:02;37.13;;;7.22;;
52554;SDS011;38455;52.710;6.502;2023-05-24T02:11:27;24.73;;;7.30;;
52554;SDS011;38455;52.710;6.502;2023-05-24T02:13:53;29.38;;;6.22;;
52554;SDS011;38455;52.710;6.502;2023-05-24T02:16:18;29.90;;;6.57;;
52554;SDS011;38455;52.710;6.502;2023-05-24T02:18:44;27.02;;;6.70;;
52554;SDS011;38455;52.710;6.502;2023-05-24T02:21:11;36.53;;;8.93;;
52554;SDS011;38455;52.710;6.502;2023-05-24T02:23:37;32.42;;;6.90;;
52554;SDS011;38455;52.710;6.502;2023-05-24T02:26:02;27.98;;;7.20;;
52554;SDS011;38455;52.710;6.502;2023-05-24T02:28:28;27.83;;;6.47;;
52554;SDS011;38455;52.710;6.502;2023-05-24T02:30:56;27.38;;;6.40;;
52554;SDS011;38455;52.710;6.502;2023-05-24T02:33:22;32.20;;;7.97;;
52554;SDS011;38455;52.710;6.502;2023-05-24T02:35:49;24.00;;;6.05;;
52554;SDS011;38455;52.710;6.502;2023-05-24T02:38:15;25.08;;;6.68;;
52554;SDS011;38455;52.710;6.502;2023-05-24T02:40:41;26.35;;;6.18;;
52554;SDS011;38455;52.710;6.502;2023-05-24T02:43:06;24.20;;;6.80;;
52554;SDS011;38455;52.710;6.502;2023-05-24T02:45:33;54.58;;;8.55;;
52554;SDS011;38455;52.710;6.502;2023-05-24T02:48:00;35.17;;;7.35;;
52554;SDS011;38455;52.710;6.502;2023-05-24T02:50:26;27.48;;;7.22;;
52554;SDS011;38455;52.710;6.502;2023-05-24T02:52:51;38.13;;;7.43;;
52554;SDS011;38455;52.710;6.502;2023-05-24T02:55:17;31.15;;;7.03;;
52554;SDS011;38455;52.710;6.502;2023-05-24T02:57:43;32.72;;;6.93;;
52554;SDS011;38455;52.710;6.502;2023-05-24T03:00:09;36.05;;;8.25;;
52554;SDS011;38455;52.710;6.502;2023-05-24T03:02:35;24.52;;;6.80;;
52554;SDS011;38455;52.710;6.502;2023-05-24T03:05:04;32.58;;;7.47;;
52554;SDS011;38455;52.710;6.502;2023-05-24T03:07:31;22.33;;;6.00;;
52554;SDS011;38455;52.710;6.502;2023-05-24T03:09:56;19.83;;;6.35;;
52554;SDS011;38455;52.710;6.502;2023-05-24T03:12:22;31.73;;;8.43;;
52554;SDS011;38455;52.710;6.502;2023-05-24T03:14:47;25.10;;;7.22;;
52554;SDS011;38455;52.710;6.502;2023-05-24T03:17:13;26.67;;;8.25;;
52554;SDS011;38455;52.710;6.502;2023-05-24T03:19:39;30.67;;;7.75;;
52554;SDS011;38455;52.710;6.502;2023-05-24T03:22:04;34.70;;;7.95;;
52554;SDS011;38455;52.710;6.502;2023-05-24T03:24:30;28.27;;;6.00;;
52554;SDS011;38455;52.710;6.502;2023-05-24T03:26:57;28.40;;;7.40;;
52554;SDS011;38455;52.710;6.502;2023-05-24T03:29:23;32.60;;;6.65;;
52554;SDS011;38455;52.710;6.502;2023-05-24T03:31:48;29.55;;;7.65;;
52554;SDS011;38455;52.710;6.502;2023-05-24T03:34:14;28.05;;;7.70;;
52554;SDS011;38455;52.710;6.502;2023-05-24T03:36:40;28.90;;;7.03;;
52554;SDS011;38455;52.710;6.502;2023-05-24T03:39:06;21.67;;;6.28;;
52554;SDS011;38455;52.710;6.502;2023-05-24T03:41:32;22.48;;;7.25;;
52554;SDS011;38455;52.710;6.502;2023-05-24T03:43:58;27.15;;;5.93;;
52554;SDS011;38455;52.710;6.502;2023-05-24T03:46:24;34.90;;;6.97;;
52554;SDS011;38455;52.710;6.502;2023-05-24T03:48:49;25.92;;;6.25;;
52554;SDS011;38455;52.710;6.502;2023-05-24T03:51:15;33.40;;;6.55;;
52554;SDS011;38455;52.710;6.502;2023-05-24T03:53:41;29.52;;;7.30;;
52554;SDS011;38455;52.710;6.502;2023-05-24T03:56:06;25.63;;;6.72;;
52554;SDS011;38455;52.710;6.502;2023-05-24T03:58:32;28.35;;;7.20;;
52554;SDS011;38455;52.710;6.502;2023-05-24T04:00:57;34.55;;;6.97;;
52554;SDS011;38455;52.710;6.502;2023-05-24T04:03:23;22.33;;;6.07;;
52554;SDS011;38455;52.710;6.502;2023-05-24T04:05:50;21.85;;;5.80;;
52554;SDS011;38455;52.710;6.502;2023-05-24T04:08:16;28.02;;;6.70;;
52554;SDS011;38455;52.710;6.502;2023-05-24T04:10:41;25.05;;;7.20;;
52554;SDS011;38455;52.710;6.502;2023-05-24T04:13:07;29.35;;;6.05;;
52554;SDS011;38455;52.710;6.502;2023-05-24T04:15:33;29.80;;;6.07;;
52554;SDS011;38455;52.710;6.502;2023-05-24T04:17:58;28.20;;;6.72;;
52554;SDS011;38455;52.710;6.502;2023-05-24T04:20:24;27.67;;;6.25;;
52554;SDS011;38455;52.710;6.502;2023-05-24T04:22:51;34.38;;;7.97;;
52554;SDS011;38455;52.710;6.502;2023-05-24T04:25:18;23.52;;;6.43;;
52554;SDS011;38455;52.710;6.502;2023-05-24T04:27:44;27.92;;;6.80;;
52554;SDS011;38455;52.710;6.502;2023-05-24T04:30:13;30.15;;;6.20;;
52554;SDS011;38455;52.710;6.502;2023-05-24T04:32:40;31.42;;;6.60;;
52554;SDS011;38455;52.710;6.502;2023-05-24T04:35:08;23.98;;;6.32;;
52554;SDS011;38455;52.710;6.502;2023-05-24T04:37:34;23.15;;;6.07;;
52554;SDS011;38455;52.710;6.502;2023-05-24T04:40:00;26.40;;;6.75;;
52554;SDS011;38455;52.710;6.502;2023-05-24T04:42:28;27.88;;;6.30;;
52554;SDS011;38455;52.710;6.502;2023-05-24T04:44:56;18.75;;;5.40;;
52554;SDS011;38455;52.710;6.502;2023-05-24T04:47:23;24.58;;;5.55;;
52554;SDS011;38455;52.710;6.502;2023-05-24T04:49:49;21.42;;;5.85;;
52554;SDS011;38455;52.710;6.502;2023-05-24T04:52:15;23.48;;;6.05;;
52554;SDS011;38455;52.710;6.502;2023-05-24T04:54:41;21.50;;;5.60;;
52554;SDS011;38455;52.710;6.502;2023-05-24T04:57:06;30.25;;;7.20;;
52554;SDS011;38455;52.710;6.502;2023-05-24T04:59:32;31.90;;;7.30;;
52554;SDS011;38455;52.710;6.502;2023-05-24T05:01:58;26.85;;;6.15;;
52554;SDS011;38455;52.710;6.502;2023-05-24T05:04:24;28.33;;;6.13;;
52554;SDS011;38455;52.710;6.502;2023-05-24T05:06:49;25.20;;;6.22;;
52554;SDS011;38455;52.710;6.502;2023-05-24T05:09:16;20.15;;;5.60;;
52554;SDS011;38455;52.710;6.502;2023-05-24T05:11:43;25.85;;;7.05;;
52554;SDS011;38455;52.710;6.502;2023-05-24T05:14:10;22.83;;;5.70;;
52554;SDS011;38455;52.710;6.502;2023-05-24T05:16:36;21.27;;;5.57;;
52554;SDS011;38455;52.710;6.502;2023-05-24T05:19:03;24.92;;;5.82;;
52554;SDS011;38455;52.710;6.502;2023-05-24T05:21:30;23.73;;;5.13;;
52554;SDS011;38455;52.710;6.502;2023-05-24T05:23:59;23.50;;;5.40;;
52554;SDS011;38455;52.710;6.502;2023-05-24T05:26:28;25.52;;;5.70;;
52554;SDS011;38455;52.710;6.502;2023-05-24T05:28:55;22.88;;;5.78;;
52554;SDS011;38455;52.710;6.502;2023-05-24T05:31:22;32.55;;;5.68;;
52554;SDS011;38455;52.710;6.502;2023-05-24T05:33:48;22.52;;;5.03;;
52554;SDS011;38455;52.710;6.502;2023-05-24T05:36:14;25.70;;;5.03;;
52554;SDS011;38455;52.710;6.502;2023-05-24T05:38:40;22.85;;;4.95;;
52554;SDS011;38455;52.710;6.502;2023-05-24T05:41:06;26.58;;;5.10;;
52554;SDS011;38455;52.710;6.502;2023-05-24T05:43:32;21.77;;;4.65;;
52554;SDS011;38455;52.710;6.502;2023-05-24T05:45:58;21.33;;;6.05;;
52554;SDS011;38455;52.710;6.502;2023-05-24T05:48:24;22.73;;;5.00;;
52554;SDS011;38455;52.710;6.502;2023-05-24T05:50:50;22.33;;;6.57;;
52554;SDS011;38455;52.710;6.502;2023-05-24T05:53:16;24.83;;;5.38;;
52554;SDS011;38455;52.710;6.502;2023-05-24T05:55:41;27.67;;;5.00;;
52554;SDS011;38455;52.710;6.502;2023-05-24T05:58:07;15.90;;;5.47;;
52554;SDS011;38455;52.710;6.502;2023-05-24T06:00:33;23.67;;;5.22;;
52554;SDS011;38455;52.710;6.502;2023-05-24T06:02:58;17.15;;;5.15;;
52554;SDS011;38455;52.710;6.502;2023-05-24T06:05:24;18.73;;;4.90;;
52554;SDS011;38455;52.710;6.502;2023-05-24T06:07:49;30.95;;;5.78;;
52554;SDS011;38455;52.710;6.502;2023-05-24T06:10:15;17.95;;;4.30;;
52554;SDS011;38455;52.710;6.502;2023-05-24T06:12:41;19.25;;;4.88;;
52554;SDS011;38455;52.710;6.502;2023-05-24T06:15:07;14.30;;;3.92;;
52554;SDS011;38455;52.710;6.502;2023-05-24T06:17:33;19.55;;;5.22;;
52554;SDS011;38455;52.710;6.502;2023-05-24T06:19:59;23.50;;;4.82;;
52554;SDS011;38455;52.710;6.502;2023-05-24T06:22:25;20.55;;;4.60;;
52554;SDS011;38455;52.710;6.502;2023-05-24T06:24:54;16.45;;;4.28;;
52554;SDS011;38455;52.710;6.502;2023-05-24T06:27:19;22.00;;;5.38;;
52554;SDS011;38455;52.710;6.502;2023-05-24T06:29:45;21.10;;;4.25;;
52554;SDS011;38455;52.710;6.502;2023-05-24T06:32:11;27.73;;;4.78;;
52554;SDS011;38455;52.710;6.502;2023-05-24T06:34:36;23.73;;;4.30;;
52554;SDS011;38455;52.710;6.502;2023-05-24T06:37:02;19.63;;;4.80;;
52554;SDS011;38455;52.710;6.502;2023-05-24T06:39:28;19.10;;;4.10;;
52554;SDS011;38455;52.710;6.502;2023-05-24T06:41:53;17.92;;;4.15;;
52554;SDS011;38455;52.710;6.502;2023-05-24T06:44:19;27.08;;;6.28;;
52554;SDS011;38455;52.710;6.502;2023-05-24T06:46:47;21.63;;;5.35;;
52554;SDS011;38455;52.710;6.502;2023-05-24T06:49:13;22.98;;;4.38;;
52554;SDS011;38455;52.710;6.502;2023-05-24T06:51:38;22.50;;;5.07;;
52554;SDS011;38455;52.710;6.502;2023-05-24T06:54:04;19.17;;;4.65;;
52554;SDS011;38455;52.710;6.502;2023-05-24T06:56:30;28.40;;;5.63;;
52554;SDS011;38455;52.710;6.502;2023-05-24T06:58:57;22.42;;;4.88;;
52554;SDS011;38455;52.710;6.502;2023-05-24T07:01:23;18.17;;;4.22;;
52554;SDS011;38455;52.710;6.502;2023-05-24T07:03:48;17.48;;;4.88;;
52554;SDS011;38455;52.710;6.502;2023-05-24T07:06:14;21.02;;;4.47;;
52554;SDS011;38455;52.710;6.502;2023-05-24T07:08:40;16.15;;;4.68;;
52554;SDS011;38455;52.710;6.502;2023-05-24T07:11:06;23.60;;;4.63;;
52554;SDS011;38455;52.710;6.502;2023-05-24T07:13:32;19.33;;;4.70;;
52554;SDS011;38455;52.710;6.502;2023-05-24T07:15:58;20.10;;;4.45;;
52554;SDS011;38455;52.710;6.502;2023-05-24T07:18:23;25.30;;;4.60;;
52554;SDS011;38455;52.710;6.502;2023-05-24T07:20:49;16.33;;;4.40;;
52554;SDS011;38455;52.710;6.502;2023-05-24T07:23:15;16.80;;;4.45;;
52554;SDS011;38455;52.710;6.502;2023-05-24T07:25:41;15.45;;;3.45;;
52554;SDS011;38455;52.710;6.502;2023-05-24T07:28:07;11.98;;;3.67;;
52554;SDS011;38455;52.710;6.502;2023-05-24T07:30:32;16.00;;;4.03;;
52554;SDS011;38455;52.710;6.502;2023-05-24T07:32:59;11.85;;;3.75;;
52554;SDS011;38455;52.710;6.502;2023-05-24T07:35:24;15.10;;;3.40;;
52554;SDS011;38455;52.710;6.502;2023-05-24T07:37:50;12.20;;;3.85;;
52554;SDS011;38455;52.710;6.502;2023-05-24T07:40:16;14.63;;;3.97;;
52554;SDS011;38455;52.710;6.502;2023-05-24T07:42:42;13.70;;;3.38;;
52554;SDS011;38455;52.710;6.502;2023-05-24T07:45:07;11.80;;;3.80;;
52554;SDS011;38455;52.710;6.502;2023-05-24T07:47:34;15.15;;;3.67;;
52554;SDS011;38455;52.710;6.502;2023-05-24T07:50:00;17.85;;;3.97;;
52554;SDS011;38455;52.710;6.502;2023-05-24T07:52:26;11.13;;;3.33;;
52554;SDS011;38455;52.710;6.502;2023-05-24T07:54:52;13.55;;;3.72;;
52554;SDS011;38455;52.710;6.502;2023-05-24T07:57:17;10.77;;;3.70;;
52554;SDS011;38455;52.710;6.502;2023-05-24T07:59:44;14.48;;;3.38;;
52554;SDS011;38455;52.710;6.502;2023-05-24T08:02:09;13.15;;;2.85;;
52554;SDS011;38455;52.710;6.502;2023-05-24T08:04:37;12.15;;;3.38;;
52554;SDS011;38455;52.710;6.502;2023-05-24T08:07:04;15.52;;;3.58;;
52554;SDS011;38455;52.710;6.502;2023-05-24T08:09:31;12.73;;;3.25;;
52554;SDS011;38455;52.710;6.502;2023-05-24T08:12:04;13.27;;;3.97;;
52554;SDS011;38455;52.710;6.502;2023-05-24T08:14:30;16.95;;;4.07;;
52554;SDS011;38455;52.710;6.502;2023-05-24T08:16:56;15.10;;;3.65;;
52554;SDS011;38455;52.710;6.502;2023-05-24T08:19:22;16.63;;;3.78;;
52554;SDS011;38455;52.710;6.502;2023-05-24T08:21:47;13.95;;;3.30;;
52554;SDS011;38455;52.710;6.502;2023-05-24T08:24:13;15.35;;;3.45;;
52554;SDS011;38455;52.710;6.502;2023-05-24T08:26:39;17.20;;;3.30;;
52554;SDS011;38455;52.710;6.502;2023-05-24T08:29:05;11.75;;;3.55;;
52554;SDS011;38455;52.710;6.502;2023-05-24T08:31:30;13.48;;;3.05;;
52554;SDS011;38455;52.710;6.502;2023-05-24T08:34:00;14.13;;;3.38;;
52554;SDS011;38455;52.710;6.502;2023-05-24T08:36:26;15.65;;;3.53;;
52554;SDS011;38455;52.710;6.502;2023-05-24T08:38:52;12.30;;;2.95;;
52554;SDS011;38455;52.710;6.502;2023-05-24T08:41:17;13.98;;;3.28;;
52554;SDS011;38455;52.710;6.502;2023-05-24T08:43:43;12.60;;;2.92;;
52554;SDS011;38455;52.710;6.502;2023-05-24T08:46:11;8.82;;;2.55;;
52554;SDS011;38455;52.710;6.502;2023-05-24T08:48:43;7.95;;;2.70;;
52554;SDS011;38455;52.710;6.502;2023-05-24T08:51:12;10.00;;;2.28;;
52554;SDS011;38455;52.710;6.502;2023-05-24T08:53:39;8.63;;;2.70;;
52554;SDS011;38455;52.710;6.502;2023-05-24T08:56:06;11.43;;;3.08;;
52554;SDS011;38455;52.710;6.502;2023-05-24T08:58:34;9.60;;;2.80;;
52554;SDS011;38455;52.710;6.502;2023-05-24T09:01:02;9.95;;;2.80;;
52554;SDS011;38455;52.710;6.502;2023-05-24T09:03:29;8.85;;;2.95;;
52554;SDS011;38455;52.710;6.502;2023-05-24T09:05:57;7.22;;;2.70;;
52554;SDS011;38455;52.710;6.502;2023-05-24T09:08:25;9.43;;;2.42;;
52554;SDS011;38455;52.710;6.502;2023-05-24T09:10:52;14.88;;;3.50;;
52554;SDS011;38455;52.710;6.502;2023-05-24T09:13:19;7.57;;;2.35;;
52554;SDS011;38455;52.710;6.502;2023-05-24T09:15:48;8.88;;;2.78;;
52554;SDS011;38455;52.710;6.502;2023-05-24T09:18:14;8.18;;;2.90;;
52554;SDS011;38455;52.710;6.502;2023-05-24T09:20:40;12.70;;;2.92;;
52554;SDS011;38455;52.710;6.502;2023-05-24T09:23:06;12.77;;;2.63;;
52554;SDS011;38455;52.710;6.502;2023-05-24T09:25:32;10.45;;;2.55;;
52554;SDS011;38455;52.710;6.502;2023-05-24T09:28:00;8.90;;;2.25;;
52554;SDS011;38455;52.710;6.502;2023-05-24T09:30:30;7.32;;;2.75;;
52554;SDS011;38455;52.710;6.502;2023-05-24T09:32:59;8.88;;;2.00;;
52554;SDS011;38455;52.710;6.502;2023-05-24T09:35:28;11.90;;;3.10;;
52554;SDS011;38455;52.710;6.502;2023-05-24T09:37:55;11.65;;;3.25;;
52554;SDS011;38455;52.710;6.502;2023-05-24T09:40:24;12.20;;;3.30;;
52554;SDS011;38455;52.710;6.502;2023-05-24T09:43:06;9.55;;;3.08;;
52554;SDS011;38455;52.710;6.502;2023-05-24T09:45:37;7.68;;;2.38;;
52554;SDS011;38455;52.710;6.502;2023-05-24T09:48:13;10.05;;;2.83;;
52554;SDS011;38455;52.710;6.502;2023-05-24T09:50:41;13.27;;;3.17;;
52554;SDS011;38455;52.710;6.502;2023-05-24T09:53:09;7.57;;;2.33;;
52554;SDS011;38455;52.710;6.502;2023-05-24T09:55:35;8.52;;;2.80;;
52554;SDS011;38455;52.710;6.502;2023-05-24T09:58:02;6.88;;;2.25;;
52554;SDS011;38455;52.710;6.502;2023-05-24T10:00:32;11.18;;;2.53;;
52554;SDS011;38455;52.710;6.502;2023-05-24T10:03:04;8.35;;;2.08;;
52554;SDS011;38455;52.710;6.502;2023-05-24T10:05:32;8.55;;;2.20;;
52554;SDS011;38455;52.710;6.502;2023-05-24T10:07:58;12.45;;;2.83;;
52554;SDS011;38455;52.710;6.502;2023-05-24T10:10:29;6.03;;;2.42;;
52554;SDS011;38455;52.710;6.502;2023-05-24T10:12:56;9.48;;;2.88;;
52554;SDS011;38455;52.710;6.502;2023-05-24T10:15:23;7.07;;;2.30;;
52554;SDS011;38455;52.710;6.502;2023-05-24T10:17:53;5.25;;;2.00;;
52554;SDS011;38455;52.710;6.502;2023-05-24T10:20:23;6.18;;;2.17;;
52554;SDS011;38455;52.710;6.502;2023-05-24T10:22:53;6.28;;;2.45;;
52554;SDS011;38455;52.710;6.502;2023-05-24T10:25:23;9.13;;;2.17;;
52554;SDS011;38455;52.710;6.502;2023-05-24T10:27:53;10.02;;;2.25;;
52554;SDS011;38455;52.710;6.502;2023-05-24T10:30:26;7.60;;;2.40;;
52554;SDS011;38455;52.710;6.502;2023-05-24T10:33:03;9.40;;;3.33;;
52554;SDS011;38455;52.710;6.502;2023-05-24T10:35:31;6.70;;;2.45;;
52554;SDS011;38455;52.710;6.502;2023-05-24T10:38:04;10.13;;;2.63;;
52554;SDS011;38455;52.710;6.502;2023-05-24T10:40:33;6.25;;;2.35;;
52554;SDS011;38455;52.710;6.502;2023-05-24T10:43:02;7.90;;;2.58;;
52554;SDS011;38455;52.710;6.502;2023-05-24T10:45:31;8.35;;;2.50;;
52554;SDS011;38455;52.710;6.502;2023-05-24T10:48:00;7.80;;;2.53;;
52554;SDS011;38455;52.710;6.502;2023-05-24T10:50:26;10.95;;;2.85;;
52554;SDS011;38455;52.710;6.502;2023-05-24T10:53:09;7.15;;;2.70;;
52554;SDS011;38455;52.710;6.502;2023-05-24T10:55:39;8.90;;;2.72;;
52554;SDS011;38455;52.710;6.502;2023-05-24T11:01:26;10.98;;;3.30;;
52554;SDS011;38455;52.710;6.502;2023-05-24T11:04:06;13.55;;;3.10;;
52554;SDS011;38455;52.710;6.502;2023-05-24T11:06:48;6.82;;;2.58;;
52554;SDS011;38455;52.710;6.502;2023-05-24T11:09:19;9.65;;;2.40;;
52554;SDS011;38455;52.710;6.502;2023-05-24T11:11:47;8.60;;;2.70;;
52554;SDS011;38455;52.710;6.502;2023-05-24T11:14:17;9.52;;;2.58;;
52554;SDS011;38455;52.710;6.502;2023-05-24T11:16:44;9.55;;;3.10;;
52554;SDS011;38455;52.710;6.502;2023-05-24T11:19:20;11.70;;;2.95;;
52554;SDS011;38455;52.710;6.502;2023-05-24T11:21:49;9.65;;;2.65;;
52554;SDS011;38455;52.710;6.502;2023-05-24T11:24:16;6.30;;;2.30;;
52554;SDS011;38455;52.710;6.502;2023-05-24T11:26:43;10.80;;;3.95;;
52554;SDS011;38455;52.710;6.502;2023-05-24T11:29:09;12.25;;;2.97;;
52554;SDS011;38455;52.710;6.502;2023-05-24T11:31:37;9.05;;;3.13;;
52554;SDS011;38455;52.710;6.502;2023-05-24T11:34:04;7.45;;;2.83;;
52554;SDS011;38455;52.710;6.502;2023-05-24T11:36:33;10.27;;;3.08;;
52554;SDS011;38455;52.710;6.502;2023-05-24T11:39:00;10.13;;;2.65;;
52554;SDS011;38455;52.710;6.502;2023-05-24T11:41:27;6.43;;;2.70;;
52554;SDS011;38455;52.710;6.502;2023-05-24T11:43:53;10.57;;;2.45;;
52554;SDS011;38455;52.710;6.502;2023-05-24T11:46:18;7.75;;;3.30;;
52554;SDS011;38455;52.710;6.502;2023-05-24T11:48:53;6.68;;;2.30;;
52554;SDS011;38455;52.710;6.502;2023-05-24T11:51:29;7.63;;;2.15;;
52554;SDS011;38455;52.710;6.502;2023-05-24T11:53:56;7.95;;;2.35;;
52554;SDS011;38455;52.710;6.502;2023-05-24T11:56:26;7.97;;;2.28;;
52554;SDS011;38455;52.710;6.502;2023-05-24T11:58:57;6.78;;;2.17;;
52554;SDS011;38455;52.710;6.502;2023-05-24T12:01:32;7.60;;;2.20;;
52554;SDS011;38455;52.710;6.502;2023-05-24T12:03:58;5.38;;;2.45;;
52554;SDS011;38455;52.710;6.502;2023-05-24T12:06:32;6.93;;;2.33;;
52554;SDS011;38455;52.710;6.502;2023-05-24T12:08:59;9.50;;;2.40;;
52554;SDS011;38455;52.710;6.502;2023-05-24T12:11:25;8.00;;;2.22;;
52554;SDS011;38455;52.710;6.502;2023-05-24T12:13:52;9.68;;;2.78;;
52554;SDS011;38455;52.710;6.502;2023-05-24T12:16:18;9.18;;;2.35;;
52554;SDS011;38455;52.710;6.502;2023-05-24T12:18:43;7.88;;;2.50;;
52554;SDS011;38455;52.710;6.502;2023-05-24T12:21:09;10.32;;;2.17;;
52554;SDS011;38455;52.710;6.502;2023-05-24T12:23:38;8.38;;;3.60;;
52554;SDS011;38455;52.710;6.502;2023-05-24T12:26:04;7.88;;;2.30;;
52554;SDS011;38455;52.710;6.502;2023-05-24T12:28:32;7.85;;;2.40;;
52554;SDS011;38455;52.710;6.502;2023-05-24T12:31:00;12.27;;;2.72;;
52554;SDS011;38455;52.710;6.502;2023-05-24T12:33:27;9.48;;;2.60;;
52554;SDS011;38455;52.710;6.502;2023-05-24T12:35:52;9.35;;;2.75;;
52554;SDS011;38455;52.710;6.502;2023-05-24T12:38:19;9.98;;;3.08;;
52554;SDS011;38455;52.710;6.502;2023-05-24T12:40:49;9.55;;;2.50;;
52554;SDS011;38455;52.710;6.502;2023-05-24T12:43:18;8.90;;;2.50;;
52554;SDS011;38455;52.710;6.502;2023-05-24T12:45:45;10.45;;;2.45;;
52554;SDS011;38455;52.710;6.502;2023-05-24T12:48:12;12.25;;;2.83;;
52554;SDS011;38455;52.710;6.502;2023-05-24T12:50:37;7.30;;;3.03;;
52554;SDS011;38455;52.710;6.502;2023-05-24T12:53:03;10.38;;;2.78;;
52554;SDS011;38455;52.710;6.502;2023-05-24T12:55:29;10.65;;;2.90;;
52554;SDS011;38455;52.710;6.502;2023-05-24T12:57:55;9.38;;;3.00;;
52554;SDS011;38455;52.710;6.502;2023-05-24T13:00:24;10.80;;;3.42;;
52554;SDS011;38455;52.710;6.502;2023-05-24T13:02:52;9.68;;;2.92;;
52554;SDS011;38455;52.710;6.502;2023-05-24T13:05:22;10.85;;;2.88;;
52554;SDS011;38455;52.710;6.502;2023-05-24T13:07:49;9.57;;;3.30;;
52554;SDS011;38455;52.710;6.502;2023-05-24T13:10:15;8.63;;;2.47;;
52554;SDS011;38455;52.710;6.502;2023-05-24T13:12:41;9.98;;;2.97;;
52554;SDS011;38455;52.710;6.502;2023-05-24T13:15:07;10.07;;;2.67;;
52554;SDS011;38455;52.710;6.502;2023-05-24T13:17:34;10.63;;;2.90;;
52554;SDS011;38455;52.710;6.502;2023-05-24T13:20:01;8.63;;;2.88;;
52554;SDS011;38455;52.710;6.502;2023-05-24T13:22:30;10.50;;;3.05;;
52554;SDS011;38455;52.710;6.502;2023-05-24T13:24:57;14.23;;;2.63;;
52554;SDS011;38455;52.710;6.502;2023-05-24T13:27:23;8.93;;;2.35;;
52554;SDS011;38455;52.710;6.502;2023-05-24T13:29:49;7.65;;;2.72;;
52554;SDS011;38455;52.710;6.502;2023-05-24T13:32:14;10.07;;;3.17;;
52554;SDS011;38455;52.710;6.502;2023-05-24T13:34:40;9.73;;;2.70;;
52554;SDS011;38455;52.710;6.502;2023-05-24T13:37:06;7.90;;;2.60;;
52554;SDS011;38455;52.710;6.502;2023-05-24T13:39:31;12.00;;;2.75;;
52554;SDS011;38455;52.710;6.502;2023-05-24T13:41:57;9.60;;;2.50;;
52554;SDS011;38455;52.710;6.502;2023-05-24T13:44:24;7.70;;;2.45;;
52554;SDS011;38455;52.710;6.502;2023-05-24T13:46:51;8.38;;;2.53;;
52554;SDS011;38455;52.710;6.502;2023-05-24T13:49:18;10.43;;;3.13;;
52554;SDS011;38455;52.710;6.502;2023-05-24T13:51:43;10.82;;;3.40;;
52554;SDS011;38455;52.710;6.502;2023-05-24T13:54:09;11.80;;;2.60;;
52554;SDS011;38455;52.710;6.502;2023-05-24T13:56:35;10.07;;;2.83;;
52554;SDS011;38455;52.710;6.502;2023-05-24T13:59:02;10.82;;;2.92;;
52554;SDS011;38455;52.710;6.502;2023-05-24T14:01:29;8.90;;;2.88;;
52554;SDS011;38455;52.710;6.502;2023-05-24T14:03:55;9.48;;;3.20;;
52554;SDS011;38455;52.710;6.502;2023-05-24T14:06:21;10.23;;;2.95;;
52554;SDS011;38455;52.710;6.502;2023-05-24T14:08:47;9.60;;;2.53;;
52554;SDS011;38455;52.710;6.502;2023-05-24T14:11:13;14.18;;;2.92;;
52554;SDS011;38455;52.710;6.502;2023-05-24T14:13:39;11.95;;;2.35;;
52554;SDS011;38455;52.710;6.502;2023-05-24T14:16:05;9.48;;;2.72;;
52554;SDS011;38455;52.710;6.502;2023-05-24T14:18:31;8.65;;;2.75;;
52554;SDS011;38455;52.710;6.502;2023-05-24T14:20:57;10.52;;;2.83;;
52554;SDS011;38455;52.710;6.502;2023-05-24T14:23:23;11.82;;;2.60;;
52554;SDS011;38455;52.710;6.502;2023-05-24T14:25:49;7.25;;;2.30;;
52554;SDS011;38455;52.710;6.502;2023-05-24T14:28:16;6.03;;;2.28;;
52554;SDS011;38455;52.710;6.502;2023-05-24T14:30:42;12.88;;;2.95;;
52554;SDS011;38455;52.710;6.502;2023-05-24T14:33:07;10.00;;;2.60;;
52554;SDS011;38455;52.710;6.502;2023-05-24T14:35:35;8.35;;;2.58;;
52554;SDS011;38455;52.710;6.502;2023-05-24T14:38:04;11.40;;;2.72;;
52554;SDS011;38455;52.710;6.502;2023-05-24T14:40:31;9.30;;;2.90;;
52554;SDS011;38455;52.710;6.502;2023-05-24T14:42:58;8.40;;;2.78;;
52554;SDS011;38455;52.710;6.502;2023-05-24T14:45:24;7.45;;;2.95;;
52554;SDS011;38455;52.710;6.502;2023-05-24T14:47:50;9.00;;;3.03;;
52554;SDS011;38455;52.710;6.502;2023-05-24T14:50:16;8.32;;;2.35;;
52554;SDS011;38455;52.710;6.502;2023-05-24T14:52:42;9.88;;;2.53;;
52554;SDS011;38455;52.710;6.502;2023-05-24T14:55:07;6.70;;;2.13;;